sensor_id;sensor_type;location;lat;lon;timestamp;temperature;humidity
50969;DHT22;36982;51.474;7.228;2023-07-13T00:00:24;17.70;52.70
50969;DHT22;36982;51.474;7.228;2023-07-13T00:02:50;17.60;40.10
50969;DHT22;36982;51.474;7.228;2023-07-13T00:05:19;17.50;57.90
50969;DHT22;36982;51.474;7.228;2023-07-13T00:07:45;17.40;99.90
50969;DHT22;36982;51.474;7.228;2023-07-13T00:10:11;17.50;1.00
50969;DHT22;36982;51.474;7.228;2023-07-13T00:12:38;17.50;99.90
50969;DHT22;36982;51.474;7.228;2023-07-13T00:15:13;17.40;99.90
50969;DHT22;36982;51.474;7.228;2023-07-13T00:17:41;17.30;99.90
50969;DHT22;36982;51.474;7.228;2023-07-13T00:20:10;17.30;88.70
50969;DHT22;36982;51.474;7.228;2023-07-13T00:22:36;17.30;99.90
50969;DHT22;36982;51.474;7.228;2023-07-13T00:25:03;17.40;99.90
50969;DHT22;36982;51.474;7.228;2023-07-13T00:27:28;17.20;1.00
50969;DHT22;36982;51.474;7.228;2023-07-13T00:30:00;17.10;99.90
50969;DHT22;36982;51.474;7.228;2023-07-13T00:32:26;17.10;99.90
50969;DHT22;36982;51.474;7.228;2023-07-13T00:34:52;17.00;92.50
50969;DHT22;36982;51.474;7.228;2023-07-13T00:37:17;17.10;31.30
50969;DHT22;36982;51.474;7.228;2023-07-13T00:39:43;16.90;1.00
50969;DHT22;36982;51.474;7.228;2023-07-13T00:42:09;16.90;99.90
50969;DHT22;36982;51.474;7.228;2023-07-13T00:44:35;17.00;99.90
50969;DHT22;36982;51.474;7.228;2023-07-13T00:47:01;16.90;1.00
50969;DHT22;36982;51.474;7.228;2023-07-13T00:49:30;16.90;99.90
50969;DHT22;36982;51.474;7.228;2023-07-13T00:52:07;16.90;1.00
50969;DHT22;36982;51.474;7.228;2023-07-13T00:54:37;16.90;99.90
50969;DHT22;36982;51.474;7.228;2023-07-13T00:57:06;16.80;4.20
50969;DHT22;36982;51.474;7.228;2023-07-13T00:59:34;16.80;99.90
50969;DHT22;36982;51.474;7.228;2023-07-13T01:02:02;16.80;1.00
50969;DHT22;36982;51.474;7.228;2023-07-13T01:04:29;16.70;38.00
50969;DHT22;36982;51.474;7.228;2023-07-13T01:06:55;16.70;1.00
50969;DHT22;36982;51.474;7.228;2023-07-13T01:09:21;16.60;1.00
50969;DHT22;36982;51.474;7.228;2023-07-13T01:11:47;16.60;99.90
50969;DHT22;36982;51.474;7.228;2023-07-13T01:14:13;16.60;1.00
50969;DHT22;36982;51.474;7.228;2023-07-13T01:16:40;16.60;99.90
50969;DHT22;36982;51.474;7.228;2023-07-13T01:21:50;16.40;1.00
50969;DHT22;36982;51.474;7.228;2023-07-13T01:24:16;16.40;61.10
50969;DHT22;36982;51.474;7.228;2023-07-13T01:26:41;16.40;99.90
50969;DHT22;36982;51.474;7.228;2023-07-13T01:29:07;16.30;99.90
50969;DHT22;36982;51.474;7.228;2023-07-13T01:31:33;16.30;1.00
50969;DHT22;36982;51.474;7.228;2023-07-13T01:33:59;16.30;99.90
50969;DHT22;36982;51.474;7.228;2023-07-13T01:36:24;16.30;99.90
50969;DHT22;36982;51.474;7.228;2023-07-13T01:38:50;16.10;99.90
50969;DHT22;36982;51.474;7.228;2023-07-13T01:41:16;16.10;16.90
50969;DHT22;36982;51.474;7.228;2023-07-13T01:43:42;16.30;99.90
50969;DHT22;36982;51.474;7.228;2023-07-13T01:46:07;16.20;99.90
50969;DHT22;36982;51.474;7.228;2023-07-13T01:48:33;16.30;1.00
50969;DHT22;36982;51.474;7.228;2023-07-13T01:50:59;16.30;99.90
50969;DHT22;36982;51.474;7.228;2023-07-13T01:53:24;16.30;39.60
50969;DHT22;36982;51.474;7.228;2023-07-13T01:55:50;16.40;99.90
50969;DHT22;36982;51.474;7.228;2023-07-13T01:58:16;16.50;99.90
50969;DHT22;36982;51.474;7.228;2023-07-13T02:00:41;16.30;1.00
50969;DHT22;36982;51.474;7.228;2023-07-13T02:03:07;16.30;1.00
50969;DHT22;36982;51.474;7.228;2023-07-13T02:05:32;16.30;1.00
50969;DHT22;36982;51.474;7.228;2023-07-13T02:07:58;16.30;99.90
50969;DHT22;36982;51.474;7.228;2023-07-13T02:10:24;16.30;1.00
50969;DHT22;36982;51.474;7.228;2023-07-13T02:12:50;16.30;77.40
50969;DHT22;36982;51.474;7.228;2023-07-13T02:15:16;16.30;99.90
50969;DHT22;36982;51.474;7.228;2023-07-13T02:17:42;16.30;99.90
50969;DHT22;36982;51.474;7.228;2023-07-13T02:20:08;16.20;99.90
50969;DHT22;36982;51.474;7.228;2023-07-13T02:22:35;16.10;18.50
50969;DHT22;36982;51.474;7.228;2023-07-13T02:25:01;16.10;1.00
50969;DHT22;36982;51.474;7.228;2023-07-13T02:27:26;16.10;99.90
50969;DHT22;36982;51.474;7.228;2023-07-13T02:29:52;16.10;99.90
50969;DHT22;36982;51.474;7.228;2023-07-13T02:32:18;16.00;99.90
50969;DHT22;36982;51.474;7.228;2023-07-13T02:34:44;16.00;99.90
50969;DHT22;36982;51.474;7.228;2023-07-13T02:37:10;15.90;99.90
50969;DHT22;36982;51.474;7.228;2023-07-13T02:39:36;15.90;99.90
50969;DHT22;36982;51.474;7.228;2023-07-13T02:42:01;15.90;99.90
50969;DHT22;36982;51.474;7.228;2023-07-13T02:44:27;15.90;1.00
50969;DHT22;36982;51.474;7.228;2023-07-13T02:46:53;15.90;1.00
50969;DHT22;36982;51.474;7.228;2023-07-13T02:49:19;15.90;99.90
50969;DHT22;36982;51.474;7.228;2023-07-13T02:51:44;15.90;99.90
50969;DHT22;36982;51.474;7.228;2023-07-13T02:54:10;15.90;21.90
50969;DHT22;36982;51.474;7.228;2023-07-13T02:56:37;15.90;1.00
50969;DHT22;36982;51.474;7.228;2023-07-13T02:59:04;15.90;1.00
50969;DHT22;36982;51.474;7.228;2023-07-13T03:01:30;16.00;1.00
50969;DHT22;36982;51.474;7.228;2023-07-13T03:03:55;15.90;99.90
50969;DHT22;36982;51.474;7.228;2023-07-13T03:06:21;16.00;1.00
50969;DHT22;36982;51.474;7.228;2023-07-13T03:08:48;16.00;1.00
50969;DHT22;36982;51.474;7.228;2023-07-13T03:11:16;15.90;99.90
50969;DHT22;36982;51.474;7.228;2023-07-13T03:13:42;15.80;1.00
50969;DHT22;36982;51.474;7.228;2023-07-13T03:16:09;15.80;14.40
50969;DHT22;36982;51.474;7.228;2023-07-13T03:18:35;15.80;49.10
50969;DHT22;36982;51.474;7.228;2023-07-13T03:21:02;15.80;98.30
50969;DHT22;36982;51.474;7.228;2023-07-13T03:23:28;15.70;99.90
50969;DHT22;36982;51.474;7.228;2023-07-13T03:28:28;15.60;99.90
50969;DHT22;36982;51.474;7.228;2023-07-13T03:31:02;15.70;99.90
50969;DHT22;36982;51.474;7.228;2023-07-13T03:33:28;15.70;99.90
50969;DHT22;36982;51.474;7.228;2023-07-13T03:35:53;15.70;99.90
50969;DHT22;36982;51.474;7.228;2023-07-13T03:38:19;15.70;99.90
50969;DHT22;36982;51.474;7.228;2023-07-13T03:40:45;15.70;99.90
50969;DHT22;36982;51.474;7.228;2023-07-13T03:43:10;15.70;99.90
50969;DHT22;36982;51.474;7.228;2023-07-13T03:45:38;15.80;99.90
50969;DHT22;36982;51.474;7.228;2023-07-13T03:48:04;15.70;99.90
50969;DHT22;36982;51.474;7.228;2023-07-13T03:50:30;15.70;99.90
50969;DHT22;36982;51.474;7.228;2023-07-13T03:52:58;15.80;99.90
50969;DHT22;36982;51.474;7.228;2023-07-13T03:55:23;15.80;99.90
50969;DHT22;36982;51.474;7.228;2023-07-13T03:57:58;15.80;99.90
50969;DHT22;36982;51.474;7.228;2023-07-13T04:00:24;15.70;99.90
50969;DHT22;36982;51.474;7.228;2023-07-13T04:02:50;15.60;99.90
50969;DHT22;36982;51.474;7.228;2023-07-13T04:05:16;15.60;99.90
50969;DHT22;36982;51.474;7.228;2023-07-13T04:07:42;15.60;99.90
50969;DHT22;36982;51.474;7.228;2023-07-13T04:10:08;15.60;99.90
50969;DHT22;36982;51.474;7.228;2023-07-13T04:12:33;15.60;99.90
50969;DHT22;36982;51.474;7.228;2023-07-13T04:14:59;15.80;99.90
50969;DHT22;36982;51.474;7.228;2023-07-13T04:17:25;15.90;99.90
50969;DHT22;36982;51.474;7.228;2023-07-13T04:19:50;16.00;99.90
50969;DHT22;36982;51.474;7.228;2023-07-13T04:22:16;16.10;99.90
50969;DHT22;36982;51.474;7.228;2023-07-13T04:24:41;16.20;99.90
50969;DHT22;36982;51.474;7.228;2023-07-13T04:27:07;16.30;99.90
50969;DHT22;36982;51.474;7.228;2023-07-13T04:29:33;16.40;99.90
50969;DHT22;36982;51.474;7.228;2023-07-13T04:31:58;16.50;99.90
50969;DHT22;36982;51.474;7.228;2023-07-13T04:34:24;16.50;99.90
50969;DHT22;36982;51.474;7.228;2023-07-13T04:36:50;16.30;99.90
50969;DHT22;36982;51.474;7.228;2023-07-13T04:39:16;16.30;99.90
50969;DHT22;36982;51.474;7.228;2023-07-13T04:41:42;16.30;99.90
50969;DHT22;36982;51.474;7.228;2023-07-13T04:44:07;16.30;99.90
50969;DHT22;36982;51.474;7.228;2023-07-13T04:46:33;16.30;99.90
50969;DHT22;36982;51.474;7.228;2023-07-13T04:48:58;16.40;99.90
50969;DHT22;36982;51.474;7.228;2023-07-13T04:51:24;16.40;99.90
50969;DHT22;36982;51.474;7.228;2023-07-13T04:53:50;16.40;99.90
50969;DHT22;36982;51.474;7.228;2023-07-13T04:56:15;16.40;99.90
50969;DHT22;36982;51.474;7.228;2023-07-13T04:58:41;16.60;99.90
50969;DHT22;36982;51.474;7.228;2023-07-13T05:01:07;16.70;99.90
50969;DHT22;36982;51.474;7.228;2023-07-13T05:03:34;16.70;54.50
50969;DHT22;36982;51.474;7.228;2023-07-13T05:06:02;17.10;1.00
50969;DHT22;36982;51.474;7.228;2023-07-13T05:08:28;17.10;1.00
50969;DHT22;36982;51.474;7.228;2023-07-13T05:10:54;17.40;99.90
50969;DHT22;36982;51.474;7.228;2023-07-13T05:13:20;17.60;1.00
50969;DHT22;36982;51.474;7.228;2023-07-13T05:15:46;17.70;99.90
50969;DHT22;36982;51.474;7.228;2023-07-13T05:18:12;17.70;88.30
50969;DHT22;36982;51.474;7.228;2023-07-13T05:20:38;17.90;99.90
50969;DHT22;36982;51.474;7.228;2023-07-13T05:23:03;17.80;99.90
50969;DHT22;36982;51.474;7.228;2023-07-13T05:25:29;17.90;99.90
50969;DHT22;36982;51.474;7.228;2023-07-13T05:27:55;17.90;99.90
50969;DHT22;36982;51.474;7.228;2023-07-13T05:30:20;17.90;1.00
50969;DHT22;36982;51.474;7.228;2023-07-13T05:32:46;18.30;99.90
50969;DHT22;36982;51.474;7.228;2023-07-13T05:35:11;18.50;27.70
50969;DHT22;36982;51.474;7.228;2023-07-13T05:37:37;18.70;99.90
50969;DHT22;36982;51.474;7.228;2023-07-13T05:40:03;18.50;99.90
50969;DHT22;36982;51.474;7.228;2023-07-13T05:42:29;18.60;99.90
50969;DHT22;36982;51.474;7.228;2023-07-13T05:44:56;18.40;99.90
50969;DHT22;36982;51.474;7.228;2023-07-13T05:47:22;18.40;99.90
50969;DHT22;36982;51.474;7.228;2023-07-13T05:49:48;18.50;92.70
50969;DHT22;36982;51.474;7.228;2023-07-13T05:52:13;18.30;99.90
50969;DHT22;36982;51.474;7.228;2023-07-13T05:54:39;18.20;1.00
50969;DHT22;36982;51.474;7.228;2023-07-13T05:57:05;18.00;1.00
50969;DHT22;36982;51.474;7.228;2023-07-13T05:59:31;18.00;99.90
50969;DHT22;36982;51.474;7.228;2023-07-13T06:01:56;18.10;99.90
50969;DHT22;36982;51.474;7.228;2023-07-13T06:04:22;18.20;99.90
50969;DHT22;36982;51.474;7.228;2023-07-13T06:06:47;18.20;99.90
50969;DHT22;36982;51.474;7.228;2023-07-13T06:09:13;18.60;99.90
50969;DHT22;36982;51.474;7.228;2023-07-13T06:11:39;18.90;99.90
50969;DHT22;36982;51.474;7.228;2023-07-13T06:14:04;19.00;99.90
50969;DHT22;36982;51.474;7.228;2023-07-13T06:16:30;18.90;99.90
50969;DHT22;36982;51.474;7.228;2023-07-13T06:18:55;18.60;1.00
50969;DHT22;36982;51.474;7.228;2023-07-13T06:21:23;18.80;99.90
50969;DHT22;36982;51.474;7.228;2023-07-13T06:23:50;18.90;99.90
50969;DHT22;36982;51.474;7.228;2023-07-13T06:26:17;19.00;39.30
50969;DHT22;36982;51.474;7.228;2023-07-13T06:28:43;19.00;1.10
50969;DHT22;36982;51.474;7.228;2023-07-13T06:31:10;18.90;1.00
50969;DHT22;36982;51.474;7.228;2023-07-13T06:33:37;19.00;1.00
50969;DHT22;36982;51.474;7.228;2023-07-13T06:36:04;19.60;99.90
50969;DHT22;36982;51.474;7.228;2023-07-13T06:38:30;20.10;99.90
50969;DHT22;36982;51.474;7.228;2023-07-13T06:40:56;20.30;84.20
50969;DHT22;36982;51.474;7.228;2023-07-13T06:43:21;20.50;1.00
50969;DHT22;36982;51.474;7.228;2023-07-13T06:45:48;20.40;1.00
50969;DHT22;36982;51.474;7.228;2023-07-13T06:48:19;21.00;1.00
50969;DHT22;36982;51.474;7.228;2023-07-13T06:50:45;21.00;99.90
50969;DHT22;36982;51.474;7.228;2023-07-13T06:53:12;21.10;99.90
50969;DHT22;36982;51.474;7.228;2023-07-13T06:55:37;21.30;74.90
50969;DHT22;36982;51.474;7.228;2023-07-13T06:58:03;21.20;97.10
50969;DHT22;36982;51.474;7.228;2023-07-13T07:00:29;20.90;24.20
50969;DHT22;36982;51.474;7.228;2023-07-13T07:02:55;20.90;1.00
50969;DHT22;36982;51.474;7.228;2023-07-13T07:05:20;20.70;1.00
50969;DHT22;36982;51.474;7.228;2023-07-13T07:07:50;20.50;55.70
50969;DHT22;36982;51.474;7.228;2023-07-13T07:10:17;20.20;57.40
50969;DHT22;36982;51.474;7.228;2023-07-13T07:12:42;19.70;99.90
50969;DHT22;36982;51.474;7.228;2023-07-13T07:15:08;19.40;1.00
50969;DHT22;36982;51.474;7.228;2023-07-13T07:17:34;19.30;1.00
50969;DHT22;36982;51.474;7.228;2023-07-13T07:20:00;19.10;80.50
50969;DHT22;36982;51.474;7.228;2023-07-13T07:22:25;19.10;99.90
50969;DHT22;36982;51.474;7.228;2023-07-13T07:24:53;19.10;1.00
50969;DHT22;36982;51.474;7.228;2023-07-13T07:27:19;19.20;99.90
50969;DHT22;36982;51.474;7.228;2023-07-13T07:29:44;19.20;99.90
50969;DHT22;36982;51.474;7.228;2023-07-13T07:32:10;19.10;99.90
50969;DHT22;36982;51.474;7.228;2023-07-13T07:34:36;19.30;1.00
50969;DHT22;36982;51.474;7.228;2023-07-13T07:37:02;19.30;99.90
50969;DHT22;36982;51.474;7.228;2023-07-13T07:39:28;19.30;99.90
50969;DHT22;36982;51.474;7.228;2023-07-13T07:41:54;19.50;1.00
50969;DHT22;36982;51.474;7.228;2023-07-13T07:44:19;19.70;99.90
50969;DHT22;36982;51.474;7.228;2023-07-13T07:46:45;19.90;18.80
50969;DHT22;36982;51.474;7.228;2023-07-13T07:49:10;20.20;99.90
50969;DHT22;36982;51.474;7.228;2023-07-13T07:51:37;20.50;99.90
50969;DHT22;36982;51.474;7.228;2023-07-13T07:54:03;21.00;1.00
50969;DHT22;36982;51.474;7.228;2023-07-13T07:56:29;21.40;99.90
50969;DHT22;36982;51.474;7.228;2023-07-13T07:58:55;21.80;99.90
50969;DHT22;36982;51.474;7.228;2023-07-13T08:01:21;21.90;99.90
50969;DHT22;36982;51.474;7.228;2023-07-13T08:03:46;21.70;1.00
50969;DHT22;36982;51.474;7.228;2023-07-13T08:06:12;21.40;1.00
50969;DHT22;36982;51.474;7.228;2023-07-13T08:08:38;21.20;1.00
50969;DHT22;36982;51.474;7.228;2023-07-13T08:11:05;21.10;18.50
50969;DHT22;36982;51.474;7.228;2023-07-13T08:13:31;21.00;12.30
50969;DHT22;36982;51.474;7.228;2023-07-13T08:15:56;20.60;82.90
50969;DHT22;36982;51.474;7.228;2023-07-13T08:18:22;20.50;19.60
50969;DHT22;36982;51.474;7.228;2023-07-13T08:20:48;20.50;99.90
50969;DHT22;36982;51.474;7.228;2023-07-13T08:23:13;20.50;99.90
50969;DHT22;36982;51.474;7.228;2023-07-13T08:25:39;20.40;99.90
50969;DHT22;36982;51.474;7.228;2023-07-13T08:28:04;20.50;99.90
50969;DHT22;36982;51.474;7.228;2023-07-13T08:30:30;20.80;99.90
50969;DHT22;36982;51.474;7.228;2023-07-13T08:32:56;20.90;99.90
50969;DHT22;36982;51.474;7.228;2023-07-13T08:35:22;20.90;99.90
50969;DHT22;36982;51.474;7.228;2023-07-13T08:37:47;21.00;99.90
50969;DHT22;36982;51.474;7.228;2023-07-13T08:40:13;21.10;99.90
50969;DHT22;36982;51.474;7.228;2023-07-13T08:42:44;21.10;99.90
50969;DHT22;36982;51.474;7.228;2023-07-13T08:45:22;20.90;57.30
50969;DHT22;36982;51.474;7.228;2023-07-13T08:48:03;20.70;66.50
50969;DHT22;36982;51.474;7.228;2023-07-13T08:50:34;20.60;83.90
50969;DHT22;36982;51.474;7.228;2023-07-13T08:53:02;20.40;99.90
50969;DHT22;36982;51.474;7.228;2023-07-13T08:55:31;20.60;99.90
50969;DHT22;36982;51.474;7.228;2023-07-13T08:58:11;20.70;99.90
50969;DHT22;36982;51.474;7.228;2023-07-13T09:01:05;20.90;99.90
50969;DHT22;36982;51.474;7.228;2023-07-13T09:03:50;21.00;99.90
50969;DHT22;36982;51.474;7.228;2023-07-13T09:06:17;20.90;99.10
50969;DHT22;36982;51.474;7.228;2023-07-13T09:08:55;21.10;81.30
50969;DHT22;36982;51.474;7.228;2023-07-13T09:14:17;21.00;30.10
50969;DHT22;36982;51.474;7.228;2023-07-13T09:16:48;20.90;69.90
50969;DHT22;36982;51.474;7.228;2023-07-13T09:19:37;20.80;55.70
50969;DHT22;36982;51.474;7.228;2023-07-13T09:22:11;20.80;34.50
50969;DHT22;36982;51.474;7.228;2023-07-13T09:25:00;20.80;1.00
50969;DHT22;36982;51.474;7.228;2023-07-13T09:27:35;20.90;1.00
50969;DHT22;36982;51.474;7.228;2023-07-13T09:30:21;20.70;32.20
50969;DHT22;36982;51.474;7.228;2023-07-13T09:32:52;20.70;1.00
50969;DHT22;36982;51.474;7.228;2023-07-13T09:35:23;20.90;38.90
50969;DHT22;36982;51.474;7.228;2023-07-13T09:37:50;21.10;42.40
50969;DHT22;36982;51.474;7.228;2023-07-13T09:41:04;21.10;1.00
50969;DHT22;36982;51.474;7.228;2023-07-13T09:43:20;21.10;1.00
50969;DHT22;36982;51.474;7.228;2023-07-13T09:45:47;21.30;1.00
50969;DHT22;36982;51.474;7.228;2023-07-13T09:48:14;21.20;1.00
50969;DHT22;36982;51.474;7.228;2023-07-13T09:50:41;21.20;1.00
50969;DHT22;36982;51.474;7.228;2023-07-13T09:53:15;21.30;1.00
50969;DHT22;36982;51.474;7.228;2023-07-13T09:55:43;21.20;1.00
50969;DHT22;36982;51.474;7.228;2023-07-13T09:58:13;21.50;1.00
50969;DHT22;36982;51.474;7.228;2023-07-13T10:00:40;21.70;1.00
50969;DHT22;36982;51.474;7.228;2023-07-13T10:03:22;21.70;1.00
50969;DHT22;36982;51.474;7.228;2023-07-13T10:05:50;21.80;1.00
50969;DHT22;36982;51.474;7.228;2023-07-13T10:10:53;22.10;1.00
50969;DHT22;36982;51.474;7.228;2023-07-13T10:16:15;22.10;99.90
50969;DHT22;36982;51.474;7.228;2023-07-13T10:18:59;22.30;99.90
50969;DHT22;36982;51.474;7.228;2023-07-13T10:21:30;22.40;99.90
50969;DHT22;36982;51.474;7.228;2023-07-13T10:24:09;22.20;99.90
50969;DHT22;36982;51.474;7.228;2023-07-13T10:26:41;22.30;99.90
50969;DHT22;36982;51.474;7.228;2023-07-13T10:29:12;22.30;99.90
50969;DHT22;36982;51.474;7.228;2023-07-13T10:31:40;22.20;99.90
50969;DHT22;36982;51.474;7.228;2023-07-13T10:34:10;22.20;99.90
50969;DHT22;36982;51.474;7.228;2023-07-13T10:36:42;22.20;99.90
50969;DHT22;36982;51.474;7.228;2023-07-13T10:39:17;22.20;99.90
50969;DHT22;36982;51.474;7.228;2023-07-13T10:41:46;22.10;99.90
50969;DHT22;36982;51.474;7.228;2023-07-13T10:44:20;22.00;99.90
50969;DHT22;36982;51.474;7.228;2023-07-13T10:46:47;22.00;99.90
50969;DHT22;36982;51.474;7.228;2023-07-13T10:49:14;21.80;99.90
50969;DHT22;36982;51.474;7.228;2023-07-13T10:51:40;21.80;99.90
50969;DHT22;36982;51.474;7.228;2023-07-13T10:54:11;21.80;99.90
50969;DHT22;36982;51.474;7.228;2023-07-13T10:56:39;22.20;99.90
50969;DHT22;36982;51.474;7.228;2023-07-13T10:59:15;22.40;99.90
50969;DHT22;36982;51.474;7.228;2023-07-13T11:01:55;22.00;99.90
50969;DHT22;36982;51.474;7.228;2023-07-13T11:04:22;21.90;99.90
50969;DHT22;36982;51.474;7.228;2023-07-13T11:06:52;21.90;99.90
50969;DHT22;36982;51.474;7.228;2023-07-13T11:09:39;22.20;99.90
50969;DHT22;36982;51.474;7.228;2023-07-13T11:17:46;22.40;1.00
50969;DHT22;36982;51.474;7.228;2023-07-13T11:22:44;22.20;9.90
50969;DHT22;36982;51.474;7.228;2023-07-13T11:25:30;22.10;27.20
50969;DHT22;36982;51.474;7.228;2023-07-13T11:36:16;22.00;30.20
50969;DHT22;36982;51.474;7.228;2023-07-13T11:38:45;22.20;46.70
50969;DHT22;36982;51.474;7.228;2023-07-13T11:41:22;22.40;1.00
50969;DHT22;36982;51.474;7.228;2023-07-13T11:43:54;22.40;1.00
50969;DHT22;36982;51.474;7.228;2023-07-13T11:46:23;22.40;1.00
50969;DHT22;36982;51.474;7.228;2023-07-13T11:48:50;22.40;1.00
50969;DHT22;36982;51.474;7.228;2023-07-13T11:51:26;22.40;99.90
50969;DHT22;36982;51.474;7.228;2023-07-13T11:53:54;22.40;99.90
50969;DHT22;36982;51.474;7.228;2023-07-13T11:56:21;22.50;99.90
50969;DHT22;36982;51.474;7.228;2023-07-13T11:58:56;22.50;99.90
50969;DHT22;36982;51.474;7.228;2023-07-13T12:01:25;22.60;99.90
50969;DHT22;36982;51.474;7.228;2023-07-13T12:03:52;22.60;99.90
50969;DHT22;36982;51.474;7.228;2023-07-13T12:06:26;22.80;99.90
50969;DHT22;36982;51.474;7.228;2023-07-13T12:08:56;22.90;99.90
50969;DHT22;36982;51.474;7.228;2023-07-13T12:11:23;22.90;99.90
50969;DHT22;36982;51.474;7.228;2023-07-13T12:13:48;22.80;23.90
50969;DHT22;36982;51.474;7.228;2023-07-13T12:16:26;22.80;30.00
50969;DHT22;36982;51.474;7.228;2023-07-13T12:18:53;22.80;25.70
50969;DHT22;36982;51.474;7.228;2023-07-13T12:21:19;22.90;1.00
50969;DHT22;36982;51.474;7.228;2023-07-13T12:23:48;23.00;1.00
50969;DHT22;36982;51.474;7.228;2023-07-13T12:26:15;23.00;1.00
50969;DHT22;36982;51.474;7.228;2023-07-13T12:31:36;22.90;1.00
50969;DHT22;36982;51.474;7.228;2023-07-13T12:36:45;23.00;1.00
50969;DHT22;36982;51.474;7.228;2023-07-13T12:41:52;22.90;99.90
50969;DHT22;36982;51.474;7.228;2023-07-13T12:44:27;22.90;99.90
50969;DHT22;36982;51.474;7.228;2023-07-13T12:47:06;23.00;99.90
50969;DHT22;36982;51.474;7.228;2023-07-13T12:49:41;23.10;99.90
50969;DHT22;36982;51.474;7.228;2023-07-13T12:52:16;23.10;99.90
50969;DHT22;36982;51.474;7.228;2023-07-13T12:54:42;23.10;99.90
50969;DHT22;36982;51.474;7.228;2023-07-13T12:57:17;23.30;99.90
50969;DHT22;36982;51.474;7.228;2023-07-13T12:59:43;23.50;99.90
50969;DHT22;36982;51.474;7.228;2023-07-13T13:02:32;23.40;99.90
50969;DHT22;36982;51.474;7.228;2023-07-13T13:05:00;23.40;99.90
50969;DHT22;36982;51.474;7.228;2023-07-13T13:07:26;23.40;99.90
50969;DHT22;36982;51.474;7.228;2023-07-13T13:09:52;23.40;99.90
50969;DHT22;36982;51.474;7.228;2023-07-13T13:12:22;23.50;99.90
50969;DHT22;36982;51.474;7.228;2023-07-13T13:14:47;23.70;99.90
50969;DHT22;36982;51.474;7.228;2023-07-13T13:17:29;23.70;99.90
50969;DHT22;36982;51.474;7.228;2023-07-13T13:19:56;23.70;99.90
50969;DHT22;36982;51.474;7.228;2023-07-13T13:22:22;23.40;99.90
50969;DHT22;36982;51.474;7.228;2023-07-13T13:24:48;23.30;99.90
50969;DHT22;36982;51.474;7.228;2023-07-13T13:27:21;23.30;99.90
50969;DHT22;36982;51.474;7.228;2023-07-13T13:29:49;23.30;99.90
50969;DHT22;36982;51.474;7.228;2023-07-13T13:32:17;23.10;99.90
50969;DHT22;36982;51.474;7.228;2023-07-13T13:34:44;23.00;99.90
50969;DHT22;36982;51.474;7.228;2023-07-13T13:37:30;22.70;99.90
50969;DHT22;36982;51.474;7.228;2023-07-13T13:39:56;22.60;99.90
50969;DHT22;36982;51.474;7.228;2023-07-13T13:42:22;22.30;99.90
50969;DHT22;36982;51.474;7.228;2023-07-13T13:44:50;21.70;99.90
50969;DHT22;36982;51.474;7.228;2023-07-13T13:47:31;20.80;99.90
50969;DHT22;36982;51.474;7.228;2023-07-13T13:49:58;19.90;93.30
50969;DHT22;36982;51.474;7.228;2023-07-13T13:52:24;19.40;29.30
50969;DHT22;36982;51.474;7.228;2023-07-13T13:54:51;19.20;99.90
50969;DHT22;36982;51.474;7.228;2023-07-13T13:57:23;19.00;99.90
50969;DHT22;36982;51.474;7.228;2023-07-13T13:59:50;18.60;99.90
50969;DHT22;36982;51.474;7.228;2023-07-13T14:02:26;18.40;99.90
50969;DHT22;36982;51.474;7.228;2023-07-13T14:04:58;18.30;1.00
50969;DHT22;36982;51.474;7.228;2023-07-13T14:07:25;18.40;99.90
50969;DHT22;36982;51.474;7.228;2023-07-13T14:09:56;18.40;1.00
50969;DHT22;36982;51.474;7.228;2023-07-13T14:12:23;18.40;1.00
50969;DHT22;36982;51.474;7.228;2023-07-13T14:14:51;18.60;1.00
50969;DHT22;36982;51.474;7.228;2023-07-13T14:17:22;18.80;99.90
50969;DHT22;36982;51.474;7.228;2023-07-13T14:19:50;19.00;99.90
50969;DHT22;36982;51.474;7.228;2023-07-13T14:22:17;19.00;99.90
50969;DHT22;36982;51.474;7.228;2023-07-13T14:24:43;19.30;99.90
50969;DHT22;36982;51.474;7.228;2023-07-13T14:27:10;19.40;99.90
50969;DHT22;36982;51.474;7.228;2023-07-13T14:29:36;19.50;99.90
50969;DHT22;36982;51.474;7.228;2023-07-13T14:32:02;19.40;99.90
50969;DHT22;36982;51.474;7.228;2023-07-13T14:34:28;19.20;99.90
50969;DHT22;36982;51.474;7.228;2023-07-13T14:36:53;19.20;99.90
50969;DHT22;36982;51.474;7.228;2023-07-13T14:39:21;19.20;1.00
50969;DHT22;36982;51.474;7.228;2023-07-13T14:41:53;19.20;99.90
50969;DHT22;36982;51.474;7.228;2023-07-13T14:44:25;19.00;1.00
50969;DHT22;36982;51.474;7.228;2023-07-13T14:46:51;18.80;1.00
50969;DHT22;36982;51.474;7.228;2023-07-13T14:49:32;18.60;18.50
50969;DHT22;36982;51.474;7.228;2023-07-13T14:52:23;18.30;14.70
50969;DHT22;36982;51.474;7.228;2023-07-13T14:54:48;18.40;30.30
50969;DHT22;36982;51.474;7.228;2023-07-13T14:57:18;18.50;36.30
50969;DHT22;36982;51.474;7.228;2023-07-13T14:59:48;18.30;45.60
50969;DHT22;36982;51.474;7.228;2023-07-13T15:02:38;18.50;47.60
50969;DHT22;36982;51.474;7.228;2023-07-13T15:05:31;18.60;35.70
50969;DHT22;36982;51.474;7.228;2023-07-13T15:07:59;18.60;10.00
50969;DHT22;36982;51.474;7.228;2023-07-13T15:10:31;18.80;28.90
50969;DHT22;36982;51.474;7.228;2023-07-13T15:12:59;18.90;28.00
50969;DHT22;36982;51.474;7.228;2023-07-13T15:15:28;18.90;1.00
50969;DHT22;36982;51.474;7.228;2023-07-13T15:17:53;19.00;1.00
50969;DHT22;36982;51.474;7.228;2023-07-13T15:20:31;19.20;1.00
50969;DHT22;36982;51.474;7.228;2023-07-13T15:22:58;19.30;1.00
50969;DHT22;36982;51.474;7.228;2023-07-13T15:25:26;19.50;1.00
50969;DHT22;36982;51.474;7.228;2023-07-13T15:27:54;19.50;1.00
50969;DHT22;36982;51.474;7.228;2023-07-13T15:30:20;19.60;1.00
50969;DHT22;36982;51.474;7.228;2023-07-13T15:32:47;19.70;1.00
50969;DHT22;36982;51.474;7.228;2023-07-13T15:35:15;19.80;1.00
50969;DHT22;36982;51.474;7.228;2023-07-13T15:37:41;19.90;1.00
50969;DHT22;36982;51.474;7.228;2023-07-13T15:40:08;20.00;1.00
50969;DHT22;36982;51.474;7.228;2023-07-13T15:42:34;20.10;1.00
50969;DHT22;36982;51.474;7.228;2023-07-13T15:45:01;20.10;1.00
50969;DHT22;36982;51.474;7.228;2023-07-13T15:47:27;20.10;99.90
50969;DHT22;36982;51.474;7.228;2023-07-13T15:49:53;20.10;99.90
50969;DHT22;36982;51.474;7.228;2023-07-13T15:52:22;20.20;1.00
50969;DHT22;36982;51.474;7.228;2023-07-13T15:54:48;20.20;1.00
50969;DHT22;36982;51.474;7.228;2023-07-13T15:57:14;20.20;1.00
50969;DHT22;36982;51.474;7.228;2023-07-13T15:59:41;20.10;1.00
50969;DHT22;36982;51.474;7.228;2023-07-13T16:02:18;20.00;1.00
50969;DHT22;36982;51.474;7.228;2023-07-13T16:04:44;19.50;1.00
50969;DHT22;36982;51.474;7.228;2023-07-13T16:07:10;18.90;26.50
50969;DHT22;36982;51.474;7.228;2023-07-13T16:09:38;18.40;30.20
50969;DHT22;36982;51.474;7.228;2023-07-13T16:12:15;18.20;46.20
50969;DHT22;36982;51.474;7.228;2023-07-13T16:14:41;17.70;48.40
50969;DHT22;36982;51.474;7.228;2023-07-13T16:17:11;17.60;47.20
50969;DHT22;36982;51.474;7.228;2023-07-13T16:19:37;17.30;38.10